sensor_id;sensor_type;location;lat;lon;timestamp;P1;durP1;ratioP1;P2;durP2;ratioP2
14768;SDS011;7476;49.404;11.152;2023-05-10T00:00:19;4.87;;;4.37;;
14768;SDS011;7476;49.404;11.152;2023-05-10T00:02:47;7.10;;;5.57;;
14768;SDS011;7476;49.404;11.152;2023-05-10T00:05:14;5.10;;;4.60;;
14768;SDS011;7476;49.404;11.152;2023-05-10T00:07:40;4.93;;;4.53;;
14768;SDS011;7476;49.404;11.152;2023-05-10T00:10:09;6.50;;;5.10;;
14768;SDS011;7476;49.404;11.152;2023-05-10T00:12:38;5.33;;;4.83;;
14768;SDS011;7476;49.404;11.152;2023-05-10T00:15:05;5.33;;;4.83;;
14768;SDS011;7476;49.404;11.152;2023-05-10T00:17:32;6.00;;;5.43;;
14768;SDS011;7476;49.404;11.152;2023-05-10T00:19:59;7.00;;;5.10;;
14768;SDS011;7476;49.404;11.152;2023-05-10T00:22:26;6.03;;;5.37;;
14768;SDS011;7476;49.404;11.152;2023-05-10T00:24:52;6.50;;;5.63;;
14768;SDS011;7476;49.404;11.152;2023-05-10T00:27:19;6.77;;;5.67;;
14768;SDS011;7476;49.404;11.152;2023-05-10T00:29:47;6.93;;;6.23;;
14768;SDS011;7476;49.404;11.152;2023-05-10T00:32:14;7.43;;;6.33;;
14768;SDS011;7476;49.404;11.152;2023-05-10T00:34:41;6.60;;;5.90;;
14768;SDS011;7476;49.404;11.152;2023-05-10T00:37:07;9.13;;;6.90;;
14768;SDS011;7476;49.404;11.152;2023-05-10T00:39:34;7.33;;;6.53;;
14768;SDS011;7476;49.404;11.152;2023-05-10T00:42:01;7.10;;;6.33;;
14768;SDS011;7476;49.404;11.152;2023-05-10T00:44:29;7.80;;;6.73;;
14768;SDS011;7476;49.404;11.152;2023-05-10T00:46:57;6.70;;;6.10;;
14768;SDS011;7476;49.404;11.152;2023-05-10T00:49:25;9.23;;;7.17;;
14768;SDS011;7476;49.404;11.152;2023-05-10T00:51:51;10.20;;;7.80;;
14768;SDS011;7476;49.404;11.152;2023-05-10T00:54:18;8.57;;;7.30;;
14768;SDS011;7476;49.404;11.152;2023-05-10T00:56:45;8.87;;;7.50;;
14768;SDS011;7476;49.404;11.152;2023-05-10T00:59:14;9.47;;;7.97;;
14768;SDS011;7476;49.404;11.152;2023-05-10T01:01:41;9.20;;;8.13;;
14768;SDS011;7476;49.404;11.152;2023-05-10T01:04:09;9.23;;;8.23;;
14768;SDS011;7476;49.404;11.152;2023-05-10T01:06:37;10.93;;;8.43;;
14768;SDS011;7476;49.404;11.152;2023-05-10T01:09:04;10.13;;;8.67;;
14768;SDS011;7476;49.404;11.152;2023-05-10T01:11:31;10.73;;;8.87;;
14768;SDS011;7476;49.404;11.152;2023-05-10T01:13:58;11.07;;;8.57;;
14768;SDS011;7476;49.404;11.152;2023-05-10T01:16:25;10.23;;;8.77;;
14768;SDS011;7476;49.404;11.152;2023-05-10T01:18:53;9.87;;;8.87;;
14768;SDS011;7476;49.404;11.152;2023-05-10T01:21:23;10.30;;;8.80;;
14768;SDS011;7476;49.404;11.152;2023-05-10T01:24:06;10.67;;;8.93;;
14768;SDS011;7476;49.404;11.152;2023-05-10T01:26:50;10.77;;;8.87;;
14768;SDS011;7476;49.404;11.152;2023-05-10T01:29:39;10.43;;;9.10;;
14768;SDS011;7476;49.404;11.152;2023-05-10T01:32:30;10.17;;;9.10;;
14768;SDS011;7476;49.404;11.152;2023-05-10T01:35:02;9.53;;;8.27;;
14768;SDS011;7476;49.404;11.152;2023-05-10T01:37:33;9.67;;;8.30;;
14768;SDS011;7476;49.404;11.152;2023-05-10T01:40:08;10.87;;;9.13;;
14768;SDS011;7476;49.404;11.152;2023-05-10T01:42:46;9.33;;;8.43;;
14768;SDS011;7476;49.404;11.152;2023-05-10T01:45:18;11.50;;;10.30;;
14768;SDS011;7476;49.404;11.152;2023-05-10T01:47:53;10.17;;;9.13;;
14768;SDS011;7476;49.404;11.152;2023-05-10T01:50:29;11.00;;;9.53;;
14768;SDS011;7476;49.404;11.152;2023-05-10T01:52:57;11.90;;;9.93;;
14768;SDS011;7476;49.404;11.152;2023-05-10T01:55:27;11.20;;;9.43;;
14768;SDS011;7476;49.404;11.152;2023-05-10T01:57:58;10.47;;;9.37;;
14768;SDS011;7476;49.404;11.152;2023-05-10T02:00:33;11.13;;;9.37;;
14768;SDS011;7476;49.404;11.152;2023-05-10T02:03:03;10.43;;;9.33;;
14768;SDS011;7476;49.404;11.152;2023-05-10T02:05:33;11.77;;;9.80;;
14768;SDS011;7476;49.404;11.152;2023-05-10T02:08:01;11.53;;;9.60;;
14768;SDS011;7476;49.404;11.152;2023-05-10T02:10:32;11.33;;;10.10;;
14768;SDS011;7476;49.404;11.152;2023-05-10T02:12:59;11.83;;;10.33;;
14768;SDS011;7476;49.404;11.152;2023-05-10T02:15:27;11.67;;;9.97;;
14768;SDS011;7476;49.404;11.152;2023-05-10T02:17:55;10.80;;;9.70;;
14768;SDS011;7476;49.404;11.152;2023-05-10T02:20:24;10.73;;;9.63;;
14768;SDS011;7476;49.404;11.152;2023-05-10T02:22:54;9.67;;;8.77;;
14768;SDS011;7476;49.404;11.152;2023-05-10T02:25:22;11.30;;;10.10;;
14768;SDS011;7476;49.404;11.152;2023-05-10T02:27:49;11.73;;;10.30;;
14768;SDS011;7476;49.404;11.152;2023-05-10T02:30:19;11.73;;;10.37;;
14768;SDS011;7476;49.404;11.152;2023-05-10T02:32:47;11.63;;;10.53;;
14768;SDS011;7476;49.404;11.152;2023-05-10T02:35:15;12.50;;;10.17;;
14768;SDS011;7476;49.404;11.152;2023-05-10T02:37:44;11.33;;;10.17;;
14768;SDS011;7476;49.404;11.152;2023-05-10T02:40:12;13.50;;;10.77;;
14768;SDS011;7476;49.404;11.152;2023-05-10T02:42:41;11.13;;;9.60;;
14768;SDS011;7476;49.404;11.152;2023-05-10T02:45:11;11.83;;;10.40;;
14768;SDS011;7476;49.404;11.152;2023-05-10T02:47:39;11.37;;;9.70;;
14768;SDS011;7476;49.404;11.152;2023-05-10T02:50:06;11.43;;;9.77;;
14768;SDS011;7476;49.404;11.152;2023-05-10T02:52:36;12.13;;;9.97;;
14768;SDS011;7476;49.404;11.152;2023-05-10T02:55:08;11.33;;;9.90;;
14768;SDS011;7476;49.404;11.152;2023-05-10T02:57:38;11.93;;;10.63;;
14768;SDS011;7476;49.404;11.152;2023-05-10T03:00:09;12.47;;;9.80;;
14768;SDS011;7476;49.404;11.152;2023-05-10T03:02:36;11.20;;;10.03;;
14768;SDS011;7476;49.404;11.152;2023-05-10T03:05:03;12.27;;;9.80;;
14768;SDS011;7476;49.404;11.152;2023-05-10T03:07:30;12.10;;;10.07;;
14768;SDS011;7476;49.404;11.152;2023-05-10T03:09:57;11.37;;;9.80;;
14768;SDS011;7476;49.404;11.152;2023-05-10T03:12:27;13.00;;;10.07;;
14768;SDS011;7476;49.404;11.152;2023-05-10T03:15:06;11.97;;;8.80;;
14768;SDS011;7476;49.404;11.152;2023-05-10T03:17:40;6.77;;;5.83;;
14768;SDS011;7476;49.404;11.152;2023-05-10T03:20:16;6.07;;;4.47;;
14768;SDS011;7476;49.404;11.152;2023-05-10T03:22:47;4.23;;;3.87;;
14768;SDS011;7476;49.404;11.152;2023-05-10T03:25:17;4.13;;;3.73;;
14768;SDS011;7476;49.404;11.152;2023-05-10T03:27:47;6.27;;;4.13;;
14768;SDS011;7476;49.404;11.152;2023-05-10T03:30:16;4.83;;;3.70;;
14768;SDS011;7476;49.404;11.152;2023-05-10T03:32:43;3.70;;;3.40;;
14768;SDS011;7476;49.404;11.152;2023-05-10T03:35:10;3.77;;;3.13;;
14768;SDS011;7476;49.404;11.152;2023-05-10T03:37:38;3.20;;;2.83;;
14768;SDS011;7476;49.404;11.152;2023-05-10T03:40:06;3.30;;;2.87;;
14768;SDS011;7476;49.404;11.152;2023-05-10T03:42:34;3.60;;;3.00;;
14768;SDS011;7476;49.404;11.152;2023-05-10T03:45:02;2.47;;;2.27;;
14768;SDS011;7476;49.404;11.152;2023-05-10T03:47:29;2.50;;;2.30;;
14768;SDS011;7476;49.404;11.152;2023-05-10T03:49:55;3.47;;;2.40;;
14768;SDS011;7476;49.404;11.152;2023-05-10T03:52:22;3.13;;;2.70;;
14768;SDS011;7476;49.404;11.152;2023-05-10T03:54:49;2.83;;;2.47;;
14768;SDS011;7476;49.404;11.152;2023-05-10T03:57:15;3.03;;;2.40;;
14768;SDS011;7476;49.404;11.152;2023-05-10T03:59:42;5.10;;;2.23;;
14768;SDS011;7476;49.404;11.152;2023-05-10T04:02:10;2.60;;;2.40;;
14768;SDS011;7476;49.404;11.152;2023-05-10T04:04:36;4.50;;;2.20;;
14768;SDS011;7476;49.404;11.152;2023-05-10T04:07:03;2.57;;;2.20;;
14768;SDS011;7476;49.404;11.152;2023-05-10T04:09:30;2.67;;;2.07;;
14768;SDS011;7476;49.404;11.152;2023-05-10T04:11:58;2.57;;;2.07;;
14768;SDS011;7476;49.404;11.152;2023-05-10T04:14:25;2.57;;;2.00;;
14768;SDS011;7476;49.404;11.152;2023-05-10T04:16:51;2.10;;;1.90;;
14768;SDS011;7476;49.404;11.152;2023-05-10T04:19:19;2.87;;;1.90;;
14768;SDS011;7476;49.404;11.152;2023-05-10T04:21:46;2.30;;;2.10;;
14768;SDS011;7476;49.404;11.152;2023-05-10T04:24:12;2.27;;;2.00;;
14768;SDS011;7476;49.404;11.152;2023-05-10T04:26:39;1.97;;;1.70;;
14768;SDS011;7476;49.404;11.152;2023-05-10T04:29:06;1.77;;;1.67;;
14768;SDS011;7476;49.404;11.152;2023-05-10T04:31:33;2.03;;;1.87;;
14768;SDS011;7476;49.404;11.152;2023-05-10T04:34:01;1.90;;;1.70;;
14768;SDS011;7476;49.404;11.152;2023-05-10T04:36:29;1.90;;;1.73;;
14768;SDS011;7476;49.404;11.152;2023-05-10T04:38:57;1.97;;;1.77;;
14768;SDS011;7476;49.404;11.152;2023-05-10T04:41:24;2.07;;;1.60;;
14768;SDS011;7476;49.404;11.152;2023-05-10T04:43:50;1.80;;;1.47;;
14768;SDS011;7476;49.404;11.152;2023-05-10T04:46:17;1.50;;;1.40;;
14768;SDS011;7476;49.404;11.152;2023-05-10T04:48:44;1.50;;;1.40;;
14768;SDS011;7476;49.404;11.152;2023-05-10T04:51:11;3.23;;;1.60;;
14768;SDS011;7476;49.404;11.152;2023-05-10T04:53:39;1.70;;;1.60;;
14768;SDS011;7476;49.404;11.152;2023-05-10T04:56:06;1.50;;;1.40;;
14768;SDS011;7476;49.404;11.152;2023-05-10T04:58:33;1.40;;;1.30;;
14768;SDS011;7476;49.404;11.152;2023-05-10T05:01:04;2.90;;;1.60;;
14768;SDS011;7476;49.404;11.152;2023-05-10T05:03:32;3.20;;;1.60;;
14768;SDS011;7476;49.404;11.152;2023-05-10T05:05:59;1.60;;;1.50;;
14768;SDS011;7476;49.404;11.152;2023-05-10T05:08:25;1.50;;;1.40;;
14768;SDS011;7476;49.404;11.152;2023-05-10T05:10:53;1.53;;;1.40;;
14768;SDS011;7476;49.404;11.152;2023-05-10T05:13:20;1.47;;;1.37;;
14768;SDS011;7476;49.404;11.152;2023-05-10T05:15:47;1.70;;;1.40;;
14768;SDS011;7476;49.404;11.152;2023-05-10T05:18:14;1.50;;;1.40;;
14768;SDS011;7476;49.404;11.152;2023-05-10T05:20:40;1.70;;;1.60;;
14768;SDS011;7476;49.404;11.152;2023-05-10T05:23:07;1.57;;;1.47;;
14768;SDS011;7476;49.404;11.152;2023-05-10T05:25:34;1.47;;;1.37;;
14768;SDS011;7476;49.404;11.152;2023-05-10T05:28:02;1.80;;;1.30;;
14768;SDS011;7476;49.404;11.152;2023-05-10T05:30:28;2.50;;;1.40;;
14768;SDS011;7476;49.404;11.152;2023-05-10T05:32:55;1.40;;;1.30;;
14768;SDS011;7476;49.404;11.152;2023-05-10T05:35:22;1.60;;;1.50;;
14768;SDS011;7476;49.404;11.152;2023-05-10T05:37:48;1.87;;;1.47;;
14768;SDS011;7476;49.404;11.152;2023-05-10T05:40:15;1.30;;;1.20;;
14768;SDS011;7476;49.404;11.152;2023-05-10T05:42:42;1.40;;;1.30;;
14768;SDS011;7476;49.404;11.152;2023-05-10T05:45:10;2.23;;;1.40;;
14768;SDS011;7476;49.404;11.152;2023-05-10T05:47:37;1.40;;;1.30;;
14768;SDS011;7476;49.404;11.152;2023-05-10T05:50:05;2.03;;;1.50;;
14768;SDS011;7476;49.404;11.152;2023-05-10T05:52:32;1.40;;;1.30;;
14768;SDS011;7476;49.404;11.152;2023-05-10T05:54:58;1.37;;;1.27;;
14768;SDS011;7476;49.404;11.152;2023-05-10T05:57:25;1.33;;;1.23;;
14768;SDS011;7476;49.404;11.152;2023-05-10T05:59:52;1.40;;;1.30;;
14768;SDS011;7476;49.404;11.152;2023-05-10T06:02:20;2.23;;;1.30;;
14768;SDS011;7476;49.404;11.152;2023-05-10T06:04:46;1.50;;;1.40;;
14768;SDS011;7476;49.404;11.152;2023-05-10T06:07:13;1.50;;;1.40;;
14768;SDS011;7476;49.404;11.152;2023-05-10T06:09:40;1.30;;;1.20;;
14768;SDS011;7476;49.404;11.152;2023-05-10T06:12:06;1.40;;;1.30;;
14768;SDS011;7476;49.404;11.152;2023-05-10T06:14:33;1.40;;;1.30;;
14768;SDS011;7476;49.404;11.152;2023-05-10T06:17:00;3.03;;;1.20;;
14768;SDS011;7476;49.404;11.152;2023-05-10T06:19:30;1.67;;;1.43;;
14768;SDS011;7476;49.404;11.152;2023-05-10T06:21:56;1.97;;;1.20;;
14768;SDS011;7476;49.404;11.152;2023-05-10T06:24:23;1.50;;;1.30;;
14768;SDS011;7476;49.404;11.152;2023-05-10T06:26:50;1.40;;;1.30;;
14768;SDS011;7476;49.404;11.152;2023-05-10T06:29:16;1.57;;;1.47;;
14768;SDS011;7476;49.404;11.152;2023-05-10T06:31:43;1.60;;;1.50;;
14768;SDS011;7476;49.404;11.152;2023-05-10T06:34:09;1.50;;;1.40;;
14768;SDS011;7476;49.404;11.152;2023-05-10T06:36:38;1.77;;;1.67;;
14768;SDS011;7476;49.404;11.152;2023-05-10T06:39:06;1.57;;;1.47;;
14768;SDS011;7476;49.404;11.152;2023-05-10T06:41:33;1.40;;;1.30;;
14768;SDS011;7476;49.404;11.152;2023-05-10T06:43:59;1.77;;;1.67;;
14768;SDS011;7476;49.404;11.152;2023-05-10T06:46:26;4.20;;;1.50;;
14768;SDS011;7476;49.404;11.152;2023-05-10T06:48:53;2.23;;;1.60;;
14768;SDS011;7476;49.404;11.152;2023-05-10T06:51:19;1.87;;;1.70;;
14768;SDS011;7476;49.404;11.152;2023-05-10T06:53:48;2.00;;;1.80;;
14768;SDS011;7476;49.404;11.152;2023-05-10T06:56:14;1.90;;;1.60;;
14768;SDS011;7476;49.404;11.152;2023-05-10T06:58:41;1.57;;;1.47;;
14768;SDS011;7476;49.404;11.152;2023-05-10T07:01:08;2.03;;;1.60;;
14768;SDS011;7476;49.404;11.152;2023-05-10T07:03:35;1.60;;;1.43;;
14768;SDS011;7476;49.404;11.152;2023-05-10T07:06:01;1.60;;;1.50;;
14768;SDS011;7476;49.404;11.152;2023-05-10T07:08:29;1.97;;;1.50;;
14768;SDS011;7476;49.404;11.152;2023-05-10T07:11:00;2.97;;;1.40;;
14768;SDS011;7476;49.404;11.152;2023-05-10T07:13:28;1.67;;;1.30;;
14768;SDS011;7476;49.404;11.152;2023-05-10T07:15:55;1.90;;;1.50;;
14768;SDS011;7476;49.404;11.152;2023-05-10T07:18:22;1.57;;;1.47;;
14768;SDS011;7476;49.404;11.152;2023-05-10T07:20:48;1.40;;;1.30;;
14768;SDS011;7476;49.404;11.152;2023-05-10T07:23:15;3.20;;;1.40;;
14768;SDS011;7476;49.404;11.152;2023-05-10T07:25:44;1.30;;;1.20;;
14768;SDS011;7476;49.404;11.152;2023-05-10T07:28:12;2.43;;;1.30;;
14768;SDS011;7476;49.404;11.152;2023-05-10T07:30:39;1.67;;;1.20;;
14768;SDS011;7476;49.404;11.152;2023-05-10T07:33:06;3.90;;;1.33;;
14768;SDS011;7476;49.404;11.152;2023-05-10T07:35:34;1.83;;;1.43;;
14768;SDS011;7476;49.404;11.152;2023-05-10T07:38:01;4.93;;;1.40;;
14768;SDS011;7476;49.404;11.152;2023-05-10T07:40:27;1.30;;;1.20;;
14768;SDS011;7476;49.404;11.152;2023-05-10T07:42:54;1.30;;;1.20;;
14768;SDS011;7476;49.404;11.152;2023-05-10T07:45:26;2.73;;;1.30;;
14768;SDS011;7476;49.404;11.152;2023-05-10T07:47:52;1.47;;;1.30;;
14768;SDS011;7476;49.404;11.152;2023-05-10T07:50:19;1.20;;;1.10;;
14768;SDS011;7476;49.404;11.152;2023-05-10T07:52:46;2.17;;;1.20;;
14768;SDS011;7476;49.404;11.152;2023-05-10T07:55:13;1.87;;;1.47;;
14768;SDS011;7476;49.404;11.152;2023-05-10T07:57:41;1.77;;;1.47;;
14768;SDS011;7476;49.404;11.152;2023-05-10T08:00:08;1.57;;;1.43;;
14768;SDS011;7476;49.404;11.152;2023-05-10T08:02:39;2.17;;;1.50;;
14768;SDS011;7476;49.404;11.152;2023-05-10T08:05:07;1.70;;;1.60;;
14768;SDS011;7476;49.404;11.152;2023-05-10T08:07:33;2.10;;;1.57;;
14768;SDS011;7476;49.404;11.152;2023-05-10T08:10:00;2.17;;;1.50;;
14768;SDS011;7476;49.404;11.152;2023-05-10T08:12:27;1.63;;;1.53;;
14768;SDS011;7476;49.404;11.152;2023-05-10T08:14:53;1.70;;;1.60;;
14768;SDS011;7476;49.404;11.152;2023-05-10T08:17:20;2.40;;;1.63;;
14768;SDS011;7476;49.404;11.152;2023-05-10T08:19:48;2.00;;;1.77;;
14768;SDS011;7476;49.404;11.152;2023-05-10T08:22:15;1.80;;;1.63;;
14768;SDS011;7476;49.404;11.152;2023-05-10T08:24:41;1.70;;;1.60;;
14768;SDS011;7476;49.404;11.152;2023-05-10T08:27:08;2.07;;;1.57;;
14768;SDS011;7476;49.404;11.152;2023-05-10T08:29:35;3.57;;;1.70;;
14768;SDS011;7476;49.404;11.152;2023-05-10T08:32:01;1.50;;;1.40;;
14768;SDS011;7476;49.404;11.152;2023-05-10T08:34:28;2.53;;;1.67;;
14768;SDS011;7476;49.404;11.152;2023-05-10T08:36:57;1.63;;;1.53;;
14768;SDS011;7476;49.404;11.152;2023-05-10T08:39:24;1.50;;;1.40;;
14768;SDS011;7476;49.404;11.152;2023-05-10T08:41:51;1.57;;;1.47;;
14768;SDS011;7476;49.404;11.152;2023-05-10T08:44:20;1.60;;;1.50;;
14768;SDS011;7476;49.404;11.152;2023-05-10T08:46:46;2.33;;;1.50;;
14768;SDS011;7476;49.404;11.152;2023-05-10T08:49:16;4.27;;;1.40;;
14768;SDS011;7476;49.404;11.152;2023-05-10T08:51:46;2.30;;;1.63;;
14768;SDS011;7476;49.404;11.152;2023-05-10T08:54:18;1.63;;;1.47;;
14768;SDS011;7476;49.404;11.152;2023-05-10T08:56:47;1.80;;;1.53;;
14768;SDS011;7476;49.404;11.152;2023-05-10T08:59:13;2.70;;;1.50;;
14768;SDS011;7476;49.404;11.152;2023-05-10T09:01:41;2.33;;;1.50;;
14768;SDS011;7476;49.404;11.152;2023-05-10T09:04:10;1.40;;;1.30;;
14768;SDS011;7476;49.404;11.152;2023-05-10T09:06:37;1.60;;;1.50;;
14768;SDS011;7476;49.404;11.152;2023-05-10T09:09:04;2.57;;;1.73;;
14768;SDS011;7476;49.404;11.152;2023-05-10T09:11:32;1.60;;;1.50;;
14768;SDS011;7476;49.404;11.152;2023-05-10T09:13:59;2.23;;;1.60;;
14768;SDS011;7476;49.404;11.152;2023-05-10T09:16:26;1.87;;;1.77;;
14768;SDS011;7476;49.404;11.152;2023-05-10T09:18:53;2.23;;;1.90;;
14768;SDS011;7476;49.404;11.152;2023-05-10T09:21:20;2.93;;;2.43;;
14768;SDS011;7476;49.404;11.152;2023-05-10T09:23:47;8.47;;;2.73;;
14768;SDS011;7476;49.404;11.152;2023-05-10T09:26:14;5.07;;;2.33;;
14768;SDS011;7476;49.404;11.152;2023-05-10T09:28:53;2.70;;;2.50;;
14768;SDS011;7476;49.404;11.152;2023-05-10T09:31:22;3.97;;;2.97;;
14768;SDS011;7476;49.404;11.152;2023-05-10T09:33:50;3.47;;;3.07;;
14768;SDS011;7476;49.404;11.152;2023-05-10T09:36:17;5.70;;;3.33;;
14768;SDS011;7476;49.404;11.152;2023-05-10T09:38:47;3.93;;;3.40;;
14768;SDS011;7476;49.404;11.152;2023-05-10T09:41:15;3.37;;;3.07;;
14768;SDS011;7476;49.404;11.152;2023-05-10T09:43:43;3.47;;;3.13;;
14768;SDS011;7476;49.404;11.152;2023-05-10T09:46:11;3.60;;;3.30;;
14768;SDS011;7476;49.404;11.152;2023-05-10T09:48:39;7.13;;;3.80;;
14768;SDS011;7476;49.404;11.152;2023-05-10T09:51:08;5.00;;;3.07;;
14768;SDS011;7476;49.404;11.152;2023-05-10T09:53:35;3.60;;;3.23;;
14768;SDS011;7476;49.404;11.152;2023-05-10T09:56:02;4.67;;;2.73;;
14768;SDS011;7476;49.404;11.152;2023-05-10T09:58:29;3.33;;;2.97;;
14768;SDS011;7476;49.404;11.152;2023-05-10T10:00:55;5.17;;;2.87;;
14768;SDS011;7476;49.404;11.152;2023-05-10T10:03:23;3.37;;;2.70;;
14768;SDS011;7476;49.404;11.152;2023-05-10T10:05:50;4.90;;;2.97;;
14768;SDS011;7476;49.404;11.152;2023-05-10T10:08:18;4.20;;;2.60;;
14768;SDS011;7476;49.404;11.152;2023-05-10T10:10:45;3.57;;;2.80;;
14768;SDS011;7476;49.404;11.152;2023-05-10T10:13:13;4.50;;;2.40;;
14768;SDS011;7476;49.404;11.152;2023-05-10T10:15:40;5.33;;;2.60;;
14768;SDS011;7476;49.404;11.152;2023-05-10T10:18:08;3.53;;;2.43;;
14768;SDS011;7476;49.404;11.152;2023-05-10T10:20:40;3.03;;;2.03;;
14768;SDS011;7476;49.404;11.152;2023-05-10T10:23:07;2.77;;;2.47;;
14768;SDS011;7476;49.404;11.152;2023-05-10T10:25:34;4.73;;;2.60;;
14768;SDS011;7476;49.404;11.152;2023-05-10T10:28:10;3.87;;;2.70;;
14768;SDS011;7476;49.404;11.152;2023-05-10T10:30:46;3.67;;;2.97;;
14768;SDS011;7476;49.404;11.152;2023-05-10T10:33:28;3.03;;;2.50;;
14768;SDS011;7476;49.404;11.152;2023-05-10T10:36:03;2.70;;;2.23;;
14768;SDS011;7476;49.404;11.152;2023-05-10T10:38:38;3.33;;;2.30;;
14768;SDS011;7476;49.404;11.152;2023-05-10T10:41:28;2.50;;;2.30;;
14768;SDS011;7476;49.404;11.152;2023-05-10T10:47:00;1.80;;;1.70;;
14768;SDS011;7476;49.404;11.152;2023-05-10T10:49:48;2.93;;;1.80;;
14768;SDS011;7476;49.404;11.152;2023-05-10T10:52:24;2.53;;;1.80;;
14768;SDS011;7476;49.404;11.152;2023-05-10T10:54:56;4.23;;;2.10;;
14768;SDS011;7476;49.404;11.152;2023-05-10T10:57:25;3.93;;;1.80;;
14768;SDS011;7476;49.404;11.152;2023-05-10T11:02:47;1.87;;;1.67;;
14768;SDS011;7476;49.404;11.152;2023-05-10T11:05:33;2.50;;;1.53;;
14768;SDS011;7476;49.404;11.152;2023-05-10T11:08:12;2.10;;;1.87;;
14768;SDS011;7476;49.404;11.152;2023-05-10T11:10:49;5.47;;;2.33;;
14768;SDS011;7476;49.404;11.152;2023-05-10T11:13:21;1.97;;;1.60;;
14768;SDS011;7476;49.404;11.152;2023-05-10T11:15:54;2.03;;;1.50;;
14768;SDS011;7476;49.404;11.152;2023-05-10T11:18:23;1.50;;;1.40;;
14768;SDS011;7476;49.404;11.152;2023-05-10T11:20:51;2.07;;;1.50;;
14768;SDS011;7476;49.404;11.152;2023-05-10T11:23:20;2.27;;;1.60;;
14768;SDS011;7476;49.404;11.152;2023-05-10T11:25:47;2.57;;;1.43;;
14768;SDS011;7476;49.404;11.152;2023-05-10T11:28:16;1.63;;;1.53;;
14768;SDS011;7476;49.404;11.152;2023-05-10T11:30:43;2.10;;;1.60;;
14768;SDS011;7476;49.404;11.152;2023-05-10T11:33:14;1.83;;;1.60;;
14768;SDS011;7476;49.404;11.152;2023-05-10T11:35:42;3.43;;;1.50;;
14768;SDS011;7476;49.404;11.152;2023-05-10T11:38:09;1.87;;;1.77;;
14768;SDS011;7476;49.404;11.152;2023-05-10T11:40:38;1.63;;;1.53;;
14768;SDS011;7476;49.404;11.152;2023-05-10T11:43:05;2.60;;;1.70;;
14768;SDS011;7476;49.404;11.152;2023-05-10T11:45:34;1.90;;;1.80;;
14768;SDS011;7476;49.404;11.152;2023-05-10T11:48:02;2.33;;;1.97;;
14768;SDS011;7476;49.404;11.152;2023-05-10T11:50:29;1.97;;;1.73;;
14768;SDS011;7476;49.404;11.152;2023-05-10T11:52:56;1.70;;;1.60;;
14768;SDS011;7476;49.404;11.152;2023-05-10T11:55:23;3.60;;;2.13;;
14768;SDS011;7476;49.404;11.152;2023-05-10T11:57:52;2.53;;;2.00;;
14768;SDS011;7476;49.404;11.152;2023-05-10T12:00:20;1.93;;;1.83;;
14768;SDS011;7476;49.404;11.152;2023-05-10T12:02:47;2.20;;;2.00;;
14768;SDS011;7476;49.404;11.152;2023-05-10T12:05:14;4.80;;;1.93;;
14768;SDS011;7476;49.404;11.152;2023-05-10T12:07:41;2.40;;;2.20;;
14768;SDS011;7476;49.404;11.152;2023-05-10T12:10:09;2.20;;;2.10;;
14768;SDS011;7476;49.404;11.152;2023-05-10T12:12:39;3.07;;;2.30;;
14768;SDS011;7476;49.404;11.152;2023-05-10T12:15:12;2.73;;;2.20;;
14768;SDS011;7476;49.404;11.152;2023-05-10T12:17:43;2.00;;;1.80;;
14768;SDS011;7476;49.404;11.152;2023-05-10T12:20:14;2.37;;;2.17;;
14768;SDS011;7476;49.404;11.152;2023-05-10T12:22:43;2.03;;;1.83;;
14768;SDS011;7476;49.404;11.152;2023-05-10T12:25:12;2.00;;;1.80;;
14768;SDS011;7476;49.404;11.152;2023-05-10T12:27:39;2.00;;;1.80;;
14768;SDS011;7476;49.404;11.152;2023-05-10T12:30:06;2.20;;;2.00;;
14768;SDS011;7476;49.404;11.152;2023-05-10T12:32:41;3.13;;;2.30;;
14768;SDS011;7476;49.404;11.152;2023-05-10T12:35:09;2.60;;;1.70;;
14768;SDS011;7476;49.404;11.152;2023-05-10T12:37:36;1.77;;;1.50;;
14768;SDS011;7476;49.404;11.152;2023-05-10T12:40:08;2.20;;;1.60;;
14768;SDS011;7476;49.404;11.152;2023-05-10T12:42:36;2.70;;;1.67;;
14768;SDS011;7476;49.404;11.152;2023-05-10T12:45:03;2.17;;;1.47;;
14768;SDS011;7476;49.404;11.152;2023-05-10T12:47:31;2.60;;;1.30;;
14768;SDS011;7476;49.404;11.152;2023-05-10T12:50:00;2.57;;;1.57;;
14768;SDS011;7476;49.404;11.152;2023-05-10T12:52:28;1.50;;;1.37;;
14768;SDS011;7476;49.404;11.152;2023-05-10T12:54:56;2.47;;;1.53;;
14768;SDS011;7476;49.404;11.152;2023-05-10T12:57:23;4.87;;;1.30;;
14768;SDS011;7476;49.404;11.152;2023-05-10T12:59:49;2.20;;;1.10;;
14768;SDS011;7476;49.404;11.152;2023-05-10T13:02:16;1.80;;;1.37;;
14768;SDS011;7476;49.404;11.152;2023-05-10T13:04:44;2.10;;;1.30;;
14768;SDS011;7476;49.404;11.152;2023-05-10T13:07:12;1.30;;;1.20;;
14768;SDS011;7476;49.404;11.152;2023-05-10T13:09:39;1.30;;;1.20;;
14768;SDS011;7476;49.404;11.152;2023-05-10T13:12:06;2.20;;;1.33;;
14768;SDS011;7476;49.404;11.152;2023-05-10T13:14:32;2.40;;;1.40;;
14768;SDS011;7476;49.404;11.152;2023-05-10T13:16:59;1.53;;;1.43;;
14768;SDS011;7476;49.404;11.152;2023-05-10T13:19:26;1.47;;;1.20;;
14768;SDS011;7476;49.404;11.152;2023-05-10T13:21:52;2.57;;;1.50;;
14768;SDS011;7476;49.404;11.152;2023-05-10T13:24:20;2.00;;;1.90;;
14768;SDS011;7476;49.404;11.152;2023-05-10T13:26:47;1.50;;;1.40;;
14768;SDS011;7476;49.404;11.152;2023-05-10T13:29:14;1.77;;;1.67;;
14768;SDS011;7476;49.404;11.152;2023-05-10T13:31:42;1.53;;;1.43;;
14768;SDS011;7476;49.404;11.152;2023-05-10T13:34:09;1.80;;;1.40;;
14768;SDS011;7476;49.404;11.152;2023-05-10T13:36:36;3.43;;;1.70;;
14768;SDS011;7476;49.404;11.152;2023-05-10T13:39:03;2.30;;;1.50;;
14768;SDS011;7476;49.404;11.152;2023-05-10T13:41:31;2.17;;;1.60;;
14768;SDS011;7476;49.404;11.152;2023-05-10T13:43:58;1.90;;;1.70;;
14768;SDS011;7476;49.404;11.152;2023-05-10T13:46:25;1.50;;;1.40;;
14768;SDS011;7476;49.404;11.152;2023-05-10T13:48:51;2.60;;;1.60;;
14768;SDS011;7476;49.404;11.152;2023-05-10T13:51:18;1.67;;;1.50;;
14768;SDS011;7476;49.404;11.152;2023-05-10T13:53:45;1.60;;;1.43;;
14768;SDS011;7476;49.404;11.152;2023-05-10T13:56:12;1.47;;;1.37;;
14768;SDS011;7476;49.404;11.152;2023-05-10T13:58:40;1.80;;;1.50;;
14768;SDS011;7476;49.404;11.152;2023-05-10T14:01:07;1.80;;;1.70;;
14768;SDS011;7476;49.404;11.152;2023-05-10T14:03:33;2.03;;;1.70;;
14768;SDS011;7476;49.404;11.152;2023-05-10T14:06:00;1.53;;;1.43;;
14768;SDS011;7476;49.404;11.152;2023-05-10T14:08:27;1.90;;;1.57;;
14768;SDS011;7476;49.404;11.152;2023-05-10T14:10:54;1.50;;;1.40;;
14768;SDS011;7476;49.404;11.152;2023-05-10T14:13:21;2.27;;;1.50;;
14768;SDS011;7476;49.404;11.152;2023-05-10T14:15:49;2.73;;;1.80;;
14768;SDS011;7476;49.404;11.152;2023-05-10T14:18:16;2.93;;;1.70;;
14768;SDS011;7476;49.404;11.152;2023-05-10T14:20:42;1.60;;;1.50;;
14768;SDS011;7476;49.404;11.152;2023-05-10T14:23:09;3.83;;;1.63;;
14768;SDS011;7476;49.404;11.152;2023-05-10T14:25:36;1.77;;;1.67;;
14768;SDS011;7476;49.404;11.152;2023-05-10T14:28:03;2.13;;;1.50;;
14768;SDS011;7476;49.404;11.152;2023-05-10T14:30:31;2.47;;;1.50;;
14768;SDS011;7476;49.404;11.152;2023-05-10T14:33:00;2.97;;;1.23;;
14768;SDS011;7476;49.404;11.152;2023-05-10T14:35:27;3.87;;;1.47;;
14768;SDS011;7476;49.404;11.152;2023-05-10T14:37:55;1.50;;;1.40;;
14768;SDS011;7476;49.404;11.152;2023-05-10T14:40:22;2.13;;;1.40;;
14768;SDS011;7476;49.404;11.152;2023-05-10T14:42:49;1.60;;;1.50;;
14768;SDS011;7476;49.404;11.152;2023-05-10T14:45:17;2.00;;;1.70;;
14768;SDS011;7476;49.404;11.152;2023-05-10T14:47:44;2.00;;;1.63;;
14768;SDS011;7476;49.404;11.152;2023-05-10T14:50:12;1.50;;;1.40;;
14768;SDS011;7476;49.404;11.152;2023-05-10T14:52:39;2.77;;;1.50;;
14768;SDS011;7476;49.404;11.152;2023-05-10T14:55:06;4.53;;;1.53;;
14768;SDS011;7476;49.404;11.152;2023-05-10T14:57:34;1.73;;;1.43;;